Time;durP1;ratioP1;P1;durP2;ratioP2;P2;SDS_P1;SDS_P2;PMS_P1;PMS_P2;Temp;Humidity;BMP_temperature;BMP_pressure;BME280_temperature;BME280_humidity;BME280_pressure;Samples;Min_cycle;Max_cycle;Signal;HPM_P1;HPM_P2
2021/07/27 00:00:00;;;;;;;11.05;6.03;;;;;;;19.08;81.27;100252.44;4964329;28;20042;-75
2021/07/27 00:02:25;;;;;;;6.88;4.97;;;;;;;19.11;80.77;100246.97;4968079;28;20051;-75
2021/07/27 00:04:50;;;;;;;8.15;5.47;;;;;;;19.16;80.48;100242.25;4962645;28;20041;-76
2021/07/27 00:07:16;;;;;;;6.53;5.03;;;;;;;19.23;79.95;100249.06;4966585;28;20039;-76
2021/07/27 00:09:41;;;;;;;8.80;5.78;;;;;;;19.26;79.65;100251.59;4965258;28;20046;-76
2021/07/27 00:12:06;;;;;;;6.88;5.35;;;;;;;19.31;79.21;100253.19;4965766;28;20038;-75
2021/07/27 00:14:31;;;;;;;9.32;5.68;;;;;;;19.32;79.11;100241.56;4967209;28;20379;-76
2021/07/27 00:16:57;;;;;;;7.72;4.70;;;;;;;19.35;78.71;100252.09;4965277;28;20437;-76
2021/07/27 00:19:23;;;;;;;8.10;5.30;;;;;;;19.34;78.41;100255.75;4966161;28;20482;-76
2021/07/27 00:21:48;;;;;;;7.93;5.35;;;;;;;19.33;78.59;100257.53;4963058;28;20041;-76
2021/07/27 00:24:13;;;;;;;6.15;4.60;;;;;;;19.30;78.92;100262.16;4964644;28;20061;-76
2021/07/27 00:26:39;;;;;;;8.15;5.10;;;;;;;19.29;78.69;100258.63;4966246;28;20035;-76
2021/07/27 00:29:04;;;;;;;9.80;5.78;;;;;;;19.26;78.51;100266.78;4964213;28;20486;-75
2021/07/27 00:31:30;;;;;;;10.30;5.28;;;;;;;19.25;78.80;100263.22;4963501;28;20043;-76
2021/07/27 00:33:55;;;;;;;7.95;5.53;;;;;;;19.18;78.99;100263.59;4965924;28;20100;-76
2021/07/27 00:36:20;;;;;;;7.43;5.35;;;;;;;19.19;78.18;100268.88;4963735;28;20039;-76
2021/07/27 00:38:46;;;;;;;9.95;5.22;;;;;;;19.19;78.24;100268.88;4964580;28;20418;-76
2021/07/27 00:41:11;;;;;;;8.98;4.70;;;;;;;19.16;78.13;100268.16;4965854;28;20073;-76
2021/07/27 00:43:37;;;;;;;13.20;6.07;;;;;;;19.17;78.13;100261.84;4963699;28;20039;-75
2021/07/27 00:46:02;;;;;;;7.43;5.22;;;;;;;19.18;77.69;100266.28;4964069;28;20031;-75
2021/07/27 00:48:27;;;;;;;8.93;5.00;;;;;;;19.23;77.43;100270.47;4965632;28;20481;-75
2021/07/27 00:50:53;;;;;;;7.65;4.93;;;;;;;19.23;77.80;100280.28;4963570;28;20087;-76
2021/07/27 00:53:19;;;;;;;9.48;5.50;;;;;;;19.19;77.83;100279.56;4964323;28;20039;-76
2021/07/27 00:55:44;;;;;;;11.45;4.90;;;;;;;19.21;77.89;100282.19;4965618;28;20044;-75
2021/07/27 00:58:09;;;;;;;8.80;4.60;;;;;;;19.20;77.54;100267.94;4963457;28;20031;-75
2021/07/27 01:00:35;;;;;;;10.95;5.07;;;;;;;19.24;77.36;100274.88;4963086;28;20040;-75
2021/07/27 01:03:00;;;;;;;6.53;4.55;;;;;;;19.24;77.52;100276.69;4965555;28;20041;-75
2021/07/27 01:05:29;;;;;;;7.50;4.65;;;;;;;19.28;76.98;100283.63;4963021;28;20481;-75
2021/07/27 01:07:56;;;;;;;7.57;5.05;;;;;;;19.31;76.76;100282.59;4963388;28;20043;-75
2021/07/27 01:10:21;;;;;;;8.55;4.75;;;;;;;19.35;76.39;100279.72;4965366;28;20035;-76
2021/07/27 01:12:49;;;;;;;8.95;4.57;;;;;;;19.38;76.31;100273.38;4963882;28;20035;-76
2021/07/27 01:15:15;;;;;;;9.90;4.68;;;;;;;19.38;76.35;100273.38;4962252;28;20130;-76
2021/07/27 01:17:41;;;;;;;11.70;4.55;;;;;;;19.39;76.28;100275.13;4964976;28;20070;-76
2021/07/27 01:20:31;;;;;;;8.25;4.60;;;;;;;19.41;76.02;100275.91;4964363;28;20074;-76
2021/07/27 01:37:30;;;;;;;7.38;3.90;;;;;;;19.40;75.62;100276.84;4964853;28;20046;-76
2021/07/27 01:39:38;;;;;;;9.60;4.50;;;;;;;19.12;76.86;100262.06;4963426;28;20070;-75
2021/07/27 01:42:13;;;;;;;8.50;4.13;;;;;;;19.12;76.54;100264.72;4965818;28;20043;-75
2021/07/27 01:44:46;;;;;;;11.45;4.50;;;;;;;19.09;76.68;100259.53;4962818;28;20051;-76
2021/07/27 01:47:21;;;;;;;7.07;4.47;;;;;;;19.09;76.51;100266.69;4963233;28;20043;-76
2021/07/27 01:49:48;;;;;;;9.02;4.72;;;;;;;19.01;77.05;100259.00;4965404;28;20528;-76
2021/07/27 01:52:14;;;;;;;9.02;4.70;;;;;;;19.00;77.13;100267.97;4962719;28;20039;-76
2021/07/27 01:54:47;;;;;;;9.32;4.90;;;;;;;18.95;76.76;100260.16;4962373;28;20126;-76
2021/07/27 01:57:13;;;;;;;8.95;4.80;;;;;;;18.86;77.30;100260.56;4962564;28;20114;-76
2021/07/27 01:59:40;;;;;;;11.30;4.90;;;;;;;18.81;77.42;100259.91;4961447;28;20039;-76
2021/07/27 02:02:06;;;;;;;9.10;5.32;;;;;;;18.78;77.61;100260.91;4964468;28;20035;-76
2021/07/27 02:04:32;;;;;;;8.15;3.90;;;;;;;18.76;77.60;100254.78;4962581;28;20085;-75
2021/07/27 02:06:58;;;;;;;7.97;4.40;;;;;;;18.73;77.59;100249.53;4962265;28;20063;-75
2021/07/27 02:09:23;;;;;;;11.75;5.38;;;;;;;18.65;77.78;100251.66;4964255;28;20163;-76
2021/07/27 02:11:53;;;;;;;8.15;4.60;;;;;;;18.57;77.95;100249.31;4963140;28;20038;-75
2021/07/27 02:14:19;;;;;;;7.40;4.55;;;;;;;18.52;77.90;100253.13;4960297;28;20039;-76
2021/07/27 02:16:44;;;;;;;18.50;5.10;;;;;;;18.46;78.37;100250.72;4964282;28;20041;-76
2021/07/27 02:19:09;;;;;;;11.70;4.45;;;;;;;18.41;78.79;100256.25;4964139;28;20031;-76
2021/07/27 02:21:35;;;;;;;13.25;5.88;;;;;;;18.32;79.48;100254.00;4964257;28;20154;-76
2021/07/27 02:24:02;;;;;;;12.00;5.03;;;;;;;18.29;79.10;100249.66;4962573;28;20450;-76
2021/07/27 02:26:27;;;;;;;11.13;5.22;;;;;;;18.25;79.28;100248.03;4961474;28;20050;-76
2021/07/27 02:28:52;;;;;;;10.25;5.13;;;;;;;18.25;79.43;100247.19;4962738;28;20034;-76
2021/07/27 02:31:32;;;;;;;8.07;4.68;;;;;;;18.24;79.77;100251.66;4961762;28;20041;-75
2021/07/27 02:33:58;;;;;;;8.68;4.05;;;;;;;18.22;79.51;100256.19;4965116;28;20136;-75
2021/07/27 02:36:24;;;;;;;12.18;4.45;;;;;;;18.24;79.25;100256.13;4962400;28;20083;-76
2021/07/27 02:38:49;;;;;;;10.27;4.68;;;;;;;18.23;78.60;100257.91;4963242;28;20042;-75
2021/07/27 02:41:20;;;;;;;9.90;4.13;;;;;;;18.22;79.11;100256.19;4962108;28;20053;-75
2021/07/27 02:43:46;;;;;;;9.13;4.75;;;;;;;18.18;79.11;100262.56;4961727;28;20821;-75
2021/07/27 02:46:11;;;;;;;10.40;4.75;;;;;;;18.17;79.33;100258.19;4963474;28;20047;-76
2021/07/27 02:48:39;;;;;;;9.38;4.75;;;;;;;18.17;79.90;100258.19;4962529;28;20171;-75
2021/07/27 02:51:07;;;;;;;10.27;5.40;;;;;;;18.16;80.14;100256.44;4961351;28;20043;-75
2021/07/27 02:53:32;;;;;;;9.45;5.72;;;;;;;18.15;79.98;100258.22;4961905;28;20038;-75
2021/07/27 02:55:59;;;;;;;7.55;5.20;;;;;;;18.14;79.89;100255.66;4962874;28;20042;-76
2021/07/27 02:58:27;;;;;;;10.75;3.78;;;;;;;18.12;79.86;100263.72;4961532;28;20446;-76
2021/07/27 03:00:52;;;;;;;6.43;4.50;;;;;;;18.09;79.69;100257.63;4962474;28;20060;-75
2021/07/27 03:03:18;;;;;;;11.60;5.25;;;;;;;18.04;80.15;100248.94;4963758;28;20050;-76
2021/07/27 03:05:43;;;;;;;8.40;4.90;;;;;;;18.06;80.05;100255.97;4963972;28;20035;-75
2021/07/27 03:08:17;;;;;;;11.77;5.75;;;;;;;18.06;80.68;100252.44;4964802;28;20044;-76
2021/07/27 03:10:43;;;;;;;8.68;4.57;;;;;;;18.07;80.08;100264.84;4961200;28;20647;-76
2021/07/27 03:13:08;;;;;;;9.15;5.78;;;;;;;18.04;80.24;100260.50;4961296;28;20148;-75
2021/07/27 03:15:33;;;;;;;10.13;5.30;;;;;;;18.03;80.29;100271.25;4963141;28;20070;-76
2021/07/27 03:17:59;;;;;;;10.18;6.28;;;;;;;18.01;80.20;100260.63;4961169;28;20134;-75
2021/07/27 03:20:27;;;;;;;15.30;8.07;;;;;;;18.01;80.02;100270.44;4961096;28;20070;-76
2021/07/27 03:22:56;;;;;;;10.30;7.75;;;;;;;18.02;79.62;100262.34;4963505;28;20043;-76
2021/07/27 03:25:22;;;;;;;10.02;6.85;;;;;;;17.99;79.79;100265.16;4961541;28;20045;-76
2021/07/27 03:27:50;;;;;;;11.02;7.20;;;;;;;17.95;79.73;100261.75;4961234;28;20039;-75
2021/07/27 03:30:17;;;;;;;9.15;5.93;;;;;;;17.93;79.52;100262.75;4961109;28;20035;-76
2021/07/27 03:32:44;;;;;;;17.45;6.50;;;;;;;17.88;80.16;100270.94;4961992;28;20046;-76
2021/07/27 03:35:12;;;;;;;13.45;6.07;;;;;;;17.86;80.25;100267.44;4963115;28;20098;-76
2021/07/27 03:37:37;;;;;;;9.25;6.35;;;;;;;17.85;80.30;100273.72;4962157;28;20039;-76
2021/07/27 03:40:03;;;;;;;10.40;6.88;;;;;;;17.88;80.95;100270.06;4963544;28;20062;-76
2021/07/27 03:42:28;;;;;;;11.38;6.57;;;;;;;17.94;80.73;100276.00;4966813;28;20050;-76
2021/07/27 03:44:55;;;;;;;13.35;6.82;;;;;;;17.94;80.59;100286.69;4963849;28;20046;-76
2021/07/27 03:47:20;;;;;;;13.60;7.28;;;;;;;17.96;80.64;100279.50;4964577;28;20042;-76
2021/07/27 03:49:45;;;;;;;16.15;7.82;;;;;;;18.01;80.57;100289.13;4966631;28;20078;-75
2021/07/27 03:52:11;;;;;;;16.63;9.23;;;;;;;17.99;81.02;100288.31;4965706;28;20043;-75
2021/07/27 03:54:36;;;;;;;12.48;6.55;;;;;;;18.03;80.94;100290.81;4967860;28;20109;-75
2021/07/27 03:57:03;;;;;;;12.18;6.57;;;;;;;18.10;80.33;100299.41;4967101;28;20043;-75
2021/07/27 03:59:33;;;;;;;10.77;6.30;;;;;;;18.11;79.90;100293.16;4964021;28;20185;-75
2021/07/27 04:01:59;;;;;;;9.23;6.07;;;;;;;18.12;80.31;100302.91;4965403;28;20038;-75
2021/07/27 04:04:26;;;;;;;11.80;6.28;;;;;;;18.17;80.25;100306.25;4964616;28;20035;-75
2021/07/27 04:06:52;;;;;;;10.07;6.75;;;;;;;18.21;80.35;100302.53;4964124;28;20043;-75
2021/07/27 04:09:18;;;;;;;21.52;8.48;;;;;;;18.27;80.21;100298.75;4966263;28;20038;-75
2021/07/27 04:11:43;;;;;;;12.85;7.53;;;;;;;18.36;79.99;100303.69;4963745;28;20026;-75
2021/07/27 04:14:12;;;;;;;11.52;6.30;;;;;;;18.44;79.88;100306.03;4968532;28;20039;-75
2021/07/27 04:16:38;;;;;;;9.23;6.45;;;;;;;18.52;79.62;100307.47;4964668;28;20034;-75
2021/07/27 04:19:04;;;;;;;11.77;6.03;;;;;;;18.62;78.99;100308.78;4963058;28;20023;-75
2021/07/27 04:21:29;;;;;;;8.32;6.13;;;;;;;18.67;79.01;100308.59;4966276;28;20528;-75
2021/07/27 04:23:56;;;;;;;9.55;5.95;;;;;;;18.72;78.94;100306.59;4964115;28;20028;-75
2021/07/27 04:26:22;;;;;;;10.32;7.35;;;;;;;18.74;78.94;100304.72;4963916;28;20039;-75
2021/07/27 04:28:47;;;;;;;13.32;7.10;;;;;;;18.84;78.39;100313.25;4965467;28;20037;-75
2021/07/27 04:31:14;;;;;;;12.73;6.07;;;;;;;18.95;77.71;100320.81;4967209;28;20045;-75
2021/07/27 04:33:40;;;;;;;11.80;5.85;;;;;;;19.01;77.38;100317.84;4968622;28;20098;-74
2021/07/27 04:36:06;;;;;;;12.73;6.55;;;;;;;19.09;76.55;100326.41;4962130;28;20540;-75
2021/07/27 04:38:31;;;;;;;10.73;5.72;;;;;;;19.17;76.26;100323.38;4964624;28;20489;-75
2021/07/27 04:40:56;;;;;;;12.73;7.22;;;;;;;19.29;75.73;100321.97;4964804;28;20047;-75
2021/07/27 04:43:21;;;;;;;9.52;6.63;;;;;;;19.34;75.27;100318.16;4964766;28;20051;-75
2021/07/27 04:45:47;;;;;;;14.00;6.22;;;;;;;19.37;75.42;100318.00;4967512;28;20031;-75
2021/07/27 04:48:12;;;;;;;13.30;6.82;;;;;;;19.42;75.36;100320.47;4963284;28;20177;-75
2021/07/27 04:50:39;;;;;;;10.20;6.57;;;;;;;19.43;74.91;100323.06;4962920;28;20031;-75
2021/07/27 04:53:09;;;;;;;12.65;6.53;;;;;;;19.52;74.79;100324.47;4964084;28;20505;-75
2021/07/27 04:55:35;;;;;;;11.20;6.85;;;;;;;19.61;74.50;100328.50;4965605;28;20039;-75
2021/07/27 04:58:06;;;;;;;10.40;6.63;;;;;;;19.69;74.76;100335.25;4967675;28;20406;-75
2021/07/27 05:00:32;;;;;;;14.98;7.30;;;;;;;19.73;74.27;100332.44;4969088;28;20042;-75
2021/07/27 05:02:58;;;;;;;11.38;5.90;;;;;;;19.83;73.92;100337.31;4969140;28;20042;-75
2021/07/27 05:05:24;;;;;;;12.25;5.25;;;;;;;19.89;73.21;100330.78;4969842;28;20026;-75
2021/07/27 05:07:49;;;;;;;10.65;5.80;;;;;;;19.91;73.46;100339.59;4967578;28;20076;-75
2021/07/27 05:10:19;;;;;;;10.27;6.47;;;;;;;19.97;73.33;100343.81;4969894;28;20037;-75
2021/07/27 05:12:44;;;;;;;9.77;5.50;;;;;;;20.07;73.33;100342.44;4970456;28;20045;-75
2021/07/27 05:15:10;;;;;;;10.38;6.05;;;;;;;20.13;73.29;100342.97;4969395;28;20046;-76
2021/07/27 05:17:37;;;;;;;12.63;5.55;;;;;;;20.23;72.79;100342.53;4964209;28;20035;-75
2021/07/27 05:20:03;;;;;;;9.07;5.10;;;;;;;20.26;72.33;100347.75;4962577;28;20023;-75
2021/07/27 05:22:29;;;;;;;11.27;5.35;;;;;;;20.32;72.31;100347.44;4964531;28;20039;-76
2021/07/27 05:24:55;;;;;;;9.15;5.18;;;;;;;20.28;72.42;100356.59;4964056;28;20038;-76
2021/07/27 05:27:24;;;;;;;8.98;4.75;;;;;;;20.33;72.31;100352.72;4962525;28;20054;-76
2021/07/27 05:29:51;;;;;;;10.18;4.60;;;;;;;20.45;71.75;100356.59;4963703;28;20049;-75
2021/07/27 05:32:16;;;;;;;7.35;3.83;;;;;;;20.61;71.27;100353.19;4964872;28;20046;-76
2021/07/27 05:34:42;;;;;;;6.50;4.03;;;;;;;20.60;70.79;100367.56;4962211;28;20042;-75
2021/07/27 05:37:07;;;;;;;9.75;5.30;;;;;;;20.59;70.55;100361.28;4963429;28;20039;-75
2021/07/27 05:39:33;;;;;;;9.38;4.78;;;;;;;20.72;70.56;100351.72;4964766;28;20039;-75
2021/07/27 05:41:58;;;;;;;7.43;4.20;;;;;;;20.81;69.34;100355.72;4964186;28;20047;-76
2021/07/27 05:44:25;;;;;;;8.57;4.35;;;;;;;20.83;69.21;100356.53;4965522;28;20038;-75
2021/07/27 05:46:55;;;;;;;11.27;4.45;;;;;;;20.91;69.81;100346.25;4961322;28;20402;-75
2021/07/27 05:49:21;;;;;;;14.40;5.97;;;;;;;21.04;69.39;100356.34;4963385;28;20038;-76
2021/07/27 05:51:50;;;;;;;9.05;5.78;;;;;;;21.15;69.05;100348.59;4984782;23;20067;-78
2021/07/27 05:54:18;;;;;;;9.25;4.68;;;;;;;21.30;68.83;100350.47;4964597;28;20089;-77
2021/07/27 05:56:44;;;;;;;7.88;5.00;;;;;;;21.29;67.71;100351.41;4961879;28;20035;-78
2021/07/27 05:59:09;;;;;;;10.40;5.75;;;;;;;21.41;68.40;100350.78;4965430;28;20493;-77
2021/07/27 06:01:34;;;;;;;8.07;4.22;;;;;;;21.42;67.94;100355.19;4961453;28;20031;-77
2021/07/27 06:04:00;;;;;;;6.75;4.57;;;;;;;21.57;68.43;100358.88;4965137;28;20374;-78
2021/07/27 06:06:29;;;;;;;11.70;4.88;;;;;;;21.65;67.06;100359.31;4961448;28;20039;-77
2021/07/27 06:08:54;;;;;;;5.70;3.70;;;;;;;21.69;67.07;100359.16;4947459;28;20042;-78
2021/07/27 06:11:19;;;;;;;7.72;4.55;;;;;;;21.65;67.26;100361.16;4962217;28;20043;-78
2021/07/27 06:13:44;;;;;;;6.85;4.00;;;;;;;21.82;66.75;100361.09;4964583;28;20053;-77
2021/07/27 06:16:10;;;;;;;6.68;4.60;;;;;;;21.92;66.57;100371.31;4962134;28;20057;-78
2021/07/27 06:18:35;;;;;;;9.63;4.50;;;;;;;21.97;65.85;100361.19;4964338;28;20026;-78
2021/07/27 06:21:01;;;;;;;7.55;4.80;;;;;;;21.99;65.58;100362.81;4962558;28;20402;-78
2021/07/27 06:23:27;;;;;;;7.43;4.63;;;;;;;22.06;65.94;100368.69;4964530;28;20066;-78
2021/07/27 06:25:52;;;;;;;9.82;6.47;;;;;;;22.12;65.54;100365.69;4961973;28;20505;-77
2021/07/27 06:28:18;;;;;;;8.73;4.72;;;;;;;22.27;65.44;100372.91;4946690;28;20039;-78
2021/07/27 06:30:43;;;;;;;5.57;4.22;;;;;;;22.33;65.88;100365.47;4963180;28;20035;-78
2021/07/27 06:33:08;;;;;;;7.03;3.90;;;;;;;22.42;64.77;100370.28;4968336;28;20529;-77
2021/07/27 06:35:34;;;;;;;7.65;4.72;;;;;;;22.36;65.03;100370.66;4965496;28;20117;-78
2021/07/27 06:37:59;;;;;;;4.90;3.70;;;;;;;22.36;64.34;100379.56;4947355;28;20043;-78
2021/07/27 06:40:24;;;;;;;8.23;4.03;;;;;;;22.45;64.23;100376.38;4966299;28;20034;-77
2021/07/27 06:42:50;;;;;;;6.35;4.00;;;;;;;22.42;65.51;100378.34;4964737;28;20043;-78
2021/07/27 06:45:18;;;;;;;7.25;4.35;;;;;;;22.41;64.52;100379.31;4966051;28;20059;-78
2021/07/27 06:47:43;;;;;;;5.90;3.60;;;;;;;22.53;64.46;100383.97;4946363;28;20074;-79
2021/07/27 06:50:09;;;;;;;5.43;3.88;;;;;;;22.50;63.61;100389.53;4963272;28;20035;-77
2021/07/27 06:52:34;;;;;;;7.85;3.80;;;;;;;22.58;64.38;100381.88;4963633;28;20402;-79
2021/07/27 06:54:59;;;;;;;8.88;3.72;;;;;;;22.69;64.73;100390.19;4962923;28;20046;-78
2021/07/27 06:57:26;;;;;;;6.50;4.00;;;;;;;22.81;63.93;100388.59;4963537;28;20038;-78
2021/07/27 06:59:51;;;;;;;6.35;3.58;;;;;;;22.83;63.36;100385.84;4963181;28;20039;-77
2021/07/27 07:02:17;;;;;;;6.55;4.20;;;;;;;22.90;62.83;100397.97;4963161;28;20039;-78
2021/07/27 07:04:42;;;;;;;8.45;4.20;;;;;;;22.89;62.88;100385.44;4965827;28;20043;-78
2021/07/27 07:07:08;;;;;;;6.93;4.45;;;;;;;22.93;62.96;100390.56;4964295;28;20050;-78
2021/07/27 07:09:33;;;;;;;8.60;4.10;;;;;;;22.96;62.55;100385.03;4946310;28;20113;-78
2021/07/27 07:11:59;;;;;;;8.35;4.13;;;;;;;23.18;62.73;100386.41;4964537;28;20035;-79
2021/07/27 07:14:24;;;;;;;6.80;3.72;;;;;;;23.23;62.05;100386.13;4970729;28;20563;-78
2021/07/27 07:16:49;;;;;;;6.75;3.95;;;;;;;23.26;61.20;100386.81;4968535;28;20394;-78
2021/07/27 07:19:15;;;;;;;6.38;3.72;;;;;;;23.32;60.94;100382.91;4967396;28;20512;-78
2021/07/27 07:21:40;;;;;;;7.45;3.95;;;;;;;23.40;61.21;100388.69;4968387;28;20043;-78
2021/07/27 07:24:06;;;;;;;6.00;3.55;;;;;;;23.46;60.41;100379.34;4967730;28;20039;-77
2021/07/27 07:26:32;;;;;;;7.28;4.18;;;;;;;23.56;60.32;100386.75;4968109;28;20062;-77
2021/07/27 07:28:57;;;;;;;6.53;3.65;;;;;;;23.63;60.38;100380.03;4967401;28;20509;-79
2021/07/27 07:31:22;;;;;;;7.00;4.15;;;;;;;23.71;60.66;100384.94;4966984;28;20042;-78
2021/07/27 07:33:48;;;;;;;7.80;5.03;;;;;;;23.80;60.25;100380.81;4966038;28;20949;-77
2021/07/27 07:36:14;;;;;;;7.32;3.65;;;;;;;23.91;60.13;100377.44;4968817;28;20588;-78
2021/07/27 07:38:41;;;;;;;7.00;4.45;;;;;;;23.94;60.23;100375.38;4973015;28;20042;-79
2021/07/27 07:41:10;;;;;;;9.07;5.25;;;;;;;24.05;59.43;100372.88;4966918;28;20046;-78
2021/07/27 07:43:37;;;;;;;6.18;3.60;;;;;;;24.12;58.66;100380.56;4969350;28;20042;-77
2021/07/27 07:46:03;;;;;;;6.60;3.40;;;;;;;24.10;58.78;100366.31;4970037;28;20046;-78
2021/07/27 07:48:28;;;;;;;6.93;4.20;;;;;;;24.13;58.39;100371.50;4965608;28;20047;-78
2021/07/27 07:50:53;;;;;;;7.90;4.40;;;;;;;24.18;59.38;100372.97;4964674;28;20042;-78
2021/07/27 07:53:19;;;;;;;5.78;4.22;;;;;;;24.33;58.71;100370.19;4965939;28;20039;-78
2021/07/27 07:55:44;;;;;;;6.28;3.78;;;;;;;24.42;57.60;100366.91;4969270;28;20038;-77
2021/07/27 07:58:09;;;;;;;6.78;3.78;;;;;;;24.39;57.40;100367.97;4968575;28;20449;-77
2021/07/27 08:00:35;;;;;;;8.77;3.72;;;;;;;24.41;57.96;100366.03;4964895;28;20035;-78
2021/07/27 08:03:02;;;;;;;5.60;3.60;;;;;;;24.48;57.39;100369.22;4969467;28;20058;-78
2021/07/27 08:05:27;;;;;;;6.10;3.33;;;;;;;24.52;58.03;100364.47;4966095;28;20034;-78
2021/07/27 08:07:53;;;;;;;7.47;4.53;;;;;;;24.66;57.75;100362.59;4969973;28;20043;-78
2021/07/27 08:10:18;;;;;;;5.45;3.85;;;;;;;24.76;56.97;100365.53;4966283;28;20035;-79
2021/07/27 08:12:46;;;;;;;11.95;6.97;;;;;;;24.85;56.44;100362.19;4972424;28;20051;-79
2021/07/27 08:15:12;;;;;;;4.95;3.42;;;;;;;24.87;55.55;100359.41;4966086;28;20505;-79
2021/07/27 08:17:37;;;;;;;6.38;3.63;;;;;;;24.68;55.48;100359.78;4967569;28;20030;-78
2021/07/27 08:20:04;;;;;;;6.38;3.38;;;;;;;24.71;55.67;100359.59;4964504;28;20493;-78
2021/07/27 08:22:29;;;;;;;7.70;4.60;;;;;;;24.79;55.94;100357.22;4950286;28;20042;-78
2021/07/27 08:24:54;;;;;;;6.22;4.13;;;;;;;24.88;55.47;100358.44;4964423;28;20043;-77
2021/07/27 08:27:20;;;;;;;5.95;3.97;;;;;;;24.98;54.74;100353.28;4967392;28;20042;-78
2021/07/27 08:29:45;;;;;;;6.15;3.63;;;;;;;24.93;54.20;100356.28;4965797;28;20074;-78
2021/07/27 08:32:11;;;;;;;7.32;3.60;;;;;;;25.03;54.89;100349.28;4967911;28;20046;-78
2021/07/27 08:34:41;;;;;;;5.35;4.30;;;;;;;25.07;54.73;100353.50;4966099;28;20043;-78
2021/07/27 08:37:07;;;;;;;8.55;3.92;;;;;;;25.18;54.20;100350.09;4967246;28;20133;-78
2021/07/27 08:39:33;;;;;;;6.95;3.63;;;;;;;25.18;54.33;100352.78;4969191;28;20030;-78
2021/07/27 08:42:02;;;;;;;6.63;4.63;;;;;;;25.33;54.83;100350.81;4967864;28;20502;-78
2021/07/27 08:44:30;;;;;;;7.95;4.90;;;;;;;25.54;53.81;100351.13;4965341;28;20405;-78
2021/07/27 08:46:58;;;;;;;12.30;6.57;;;;;;;25.70;53.17;100353.59;4967890;28;20066;-79
2021/07/27 08:49:24;;;;;;;8.35;5.40;;;;;;;25.66;52.13;100352.97;4965437;28;20050;-78
2021/07/27 08:51:50;;;;;;;6.00;3.65;;;;;;;25.71;52.11;100356.19;4968644;28;20047;-78
2021/07/27 08:54:16;;;;;;;5.93;4.72;;;;;;;25.75;52.23;100357.72;4947891;29;20450;-79
2021/07/27 08:56:48;;;;;;;6.68;3.92;;;;;;;25.88;51.49;100351.44;4968888;28;20042;-79
2021/07/27 08:59:15;;;;;;;6.95;3.90;;;;;;;25.94;51.46;100351.00;4965965;28;20043;-79
2021/07/27 09:01:40;;;;;;;4.70;3.25;;;;;;;26.06;52.17;100355.50;4967997;28;20043;-78
2021/07/27 09:04:05;;;;;;;6.78;3.28;;;;;;;26.22;50.33;100366.03;4964888;28;20525;-78
2021/07/27 09:06:31;;;;;;;6.47;2.90;;;;;;;26.22;47.57;100366.03;4965360;28;20493;-77
2021/07/27 09:09:10;;;;;;;5.22;3.08;;;;;;;26.17;48.14;100363.69;4962460;28;20062;-77
2021/07/27 09:11:44;;;;;;;5.43;3.58;;;;;;;26.18;48.69;100365.41;4963424;28;20035;-79
2021/07/27 09:14:14;;;;;;;5.30;2.95;;;;;;;26.21;47.94;100358.91;4962705;28;20560;-78
2021/07/27 09:16:46;;;;;;;7.95;3.08;;;;;;;26.38;47.96;100361.22;4965352;28;20066;-78
2021/07/27 09:19:12;;;;;;;7.85;3.90;;;;;;;26.38;47.44;100350.41;4968366;28;20031;-78
2021/07/27 09:21:41;;;;;;;6.53;4.18;;;;;;;26.57;47.89;100358.03;4965609;28;20442;-78
2021/07/27 09:24:07;;;;;;;6.25;3.70;;;;;;;26.77;46.92;100355.63;4966222;28;20042;-78
2021/07/27 09:26:32;;;;;;;4.85;3.60;;;;;;;26.84;46.35;100355.03;4964378;28;20469;-78
2021/07/27 09:29:04;;;;;;;5.38;3.08;;;;;;;26.91;45.02;100351.84;4964738;28;20038;-79
2021/07/27 09:31:31;;;;;;;3.80;2.58;;;;;;;27.05;45.24;100357.06;4946856;28;20050;-78
2021/07/27 09:33:56;;;;;;;5.15;2.67;;;;;;;26.94;44.32;100351.63;4968167;28;20043;-79
2021/07/27 09:36:24;;;;;;;4.43;2.63;;;;;;;26.96;43.83;100355.06;4964068;28;20085;-79
2021/07/27 09:39:03;;;;;;;6.03;3.50;;;;;;;26.86;44.08;100355.78;4964062;28;20027;-78
2021/07/27 09:41:30;;;;;;;3.60;2.38;;;;;;;26.96;44.07;100347.84;4932798;28;20037;-79
2021/07/27 09:43:57;;;;;;;5.60;2.78;;;;;;;27.04;43.68;100349.94;4966449;28;20114;-79
2021/07/27 09:46:24;;;;;;;3.88;2.85;;;;;;;26.98;43.24;100353.97;4964428;28;20812;-79
2021/07/27 09:48:51;;;;;;;4.72;3.50;;;;;;;27.19;44.38;100351.47;4966703;28;20042;-79
2021/07/27 09:51:17;;;;;;;4.60;2.80;;;;;;;27.27;43.43;100348.16;4946041;28;20106;-78
2021/07/27 09:53:44;;;;;;;4.93;2.47;;;;;;;27.17;42.13;100357.94;4966207;28;20105;-78
2021/07/27 09:56:10;;;;;;;4.18;3.03;;;;;;;27.23;41.69;100366.50;4945873;29;20517;-79
2021/07/27 09:58:36;;;;;;;6.30;2.53;;;;;;;27.16;41.65;100350.81;4964339;28;20043;-78
2021/07/27 10:01:09;;;;;;;4.30;2.38;;;;;;;27.20;41.62;100357.75;4970934;28;20035;-79
2021/07/27 10:03:43;;;;;;;5.07;3.88;;;;;;;27.20;42.39;100357.75;4965497;28;20075;-79
2021/07/27 10:06:09;;;;;;;4.10;2.10;;;;;;;27.44;40.65;100349.53;4970354;28;20422;-79
2021/07/27 10:08:36;;;;;;;5.20;1.92;;;;;;;27.52;40.67;100357.91;4966808;28;20042;-80
2021/07/27 10:11:07;;;;;;;5.78;2.58;;;;;;;27.57;41.08;100355.69;4960924;28;20037;-79
2021/07/27 10:13:34;;;;;;;5.18;2.70;;;;;;;27.65;40.78;100363.22;4965157;28;20051;-79
2021/07/27 10:16:00;;;;;;;4.10;2.20;;;;;;;27.67;38.78;100361.25;4962931;28;20047;-76
2021/07/27 10:18:34;;;;;;;5.38;2.60;;;;;;;27.67;39.52;100347.69;4966353;28;20030;-79
2021/07/27 10:21:17;;;;;;;4.45;2.65;;;;;;;27.68;38.75;100360.25;4962746;28;20049;-79
2021/07/27 10:23:43;;;;;;;4.80;2.47;;;;;;;28.00;40.84;100363.09;4962420;28;20383;-79
2021/07/27 10:26:08;;;;;;;4.15;3.47;;;;;;;28.41;39.93;100354.22;4959582;28;20050;-79
2021/07/27 10:28:33;;;;;;;6.93;5.35;;;;;;;28.60;38.72;100361.72;4944067;29;20042;-79
2021/07/27 10:31:06;;;;;;;4.05;2.50;;;;;;;28.73;38.38;100356.09;4964313;28;20623;-79
2021/07/27 10:33:32;;;;;;;4.95;2.75;;;;;;;28.70;38.56;100355.53;4965133;28;20038;-79
2021/07/27 10:35:58;;;;;;;5.35;3.28;;;;;;;28.65;37.71;100353.19;4957413;28;20081;-79
2021/07/27 10:38:35;;;;;;;5.72;2.45;;;;;;;28.53;37.89;100354.22;4964240;28;20498;-79
2021/07/27 10:41:11;;;;;;;5.68;3.53;;;;;;;28.49;37.94;100347.34;4963217;28;20490;-78
2021/07/27 10:43:37;;;;;;;6.45;2.80;;;;;;;28.43;38.43;100364.97;4969662;28;20528;-79
2021/07/27 10:46:02;;;;;;;3.92;2.60;;;;;;;28.47;37.69;100366.47;4966243;28;20033;-79
2021/07/27 10:48:34;;;;;;;6.03;2.65;;;;;;;28.35;38.84;100367.47;4969845;28;20038;-80
2021/07/27 10:51:01;;;;;;;4.45;3.17;;;;;;;28.56;38.72;100362.13;4967091;28;20037;-79
2021/07/27 10:53:31;;;;;;;4.68;2.67;;;;;;;28.80;38.46;100353.75;4970739;28;20086;-78
2021/07/27 10:56:06;;;;;;;4.05;2.55;;;;;;;28.75;38.02;100354.13;4949850;28;20035;-79
2021/07/27 10:58:34;;;;;;;4.18;2.60;;;;;;;28.96;37.90;100342.44;4947896;29;20031;-79
2021/07/27 11:01:10;;;;;;;5.55;3.35;;;;;;;29.39;38.63;100346.84;4967002;28;20386;-81
2021/07/27 11:03:35;;;;;;;5.25;2.63;;;;;;;29.69;37.31;100346.88;4966153;28;20174;-82
2021/07/27 11:06:04;;;;;;;4.65;2.97;;;;;;;29.54;36.92;100350.94;4967723;28;20046;-81
2021/07/27 11:08:30;;;;;;;5.20;2.90;;;;;;;29.79;36.54;100344.22;4946531;29;20391;-82
2021/07/27 11:11:10;;;;;;;4.63;2.78;;;;;;;29.95;36.18;100345.53;4967324;28;20042;-82
2021/07/27 11:13:37;;;;;;;4.93;3.70;;;;;;;29.94;36.10;100341.94;4948303;29;20035;-82
2021/07/27 11:16:03;;;;;;;7.50;2.92;;;;;;;30.43;35.82;100336.63;4964956;28;20046;-82
2021/07/27 11:18:29;;;;;;;3.67;2.90;;;;;;;30.47;34.54;100338.06;4964717;28;20043;-82
2021/07/27 11:20:55;;;;;;;7.80;4.20;;;;;;;30.44;34.85;100336.47;4968166;28;20054;-82
2021/07/27 11:23:21;;;;;;;5.53;2.78;;;;;;;30.72;34.06;100340.22;4945990;29;20035;-81
2021/07/27 11:25:54;;;;;;;5.80;3.85;;;;;;;30.71;35.57;100340.38;4948510;28;20407;-82
2021/07/27 11:28:20;;;;;;;5.32;3.05;;;;;;;30.73;34.87;100332.88;4966887;28;20043;-82
2021/07/27 11:30:46;;;;;;;7.30;3.53;;;;;;;30.93;34.57;100329.19;4946796;28;20116;-82
2021/07/27 11:33:20;;;;;;;4.60;3.15;;;;;;;30.76;34.72;100336.22;4971011;28;20038;-81
2021/07/27 11:35:50;;;;;;;7.38;3.17;;;;;;;30.61;33.98;100334.06;4967673;28;20050;-82